sensor_id;sensor_type;location;lat;lon;timestamp;P1;durP1;ratioP1;P2;durP2;ratioP2
37355;SDS011;48747;50.250;18.848;2022-11-20T00:01:33;150.93;;;61.42;;
37355;SDS011;48747;50.250;18.848;2022-11-20T00:03:36;183.75;;;70.25;;
37355;SDS011;48747;50.250;18.848;2022-11-20T00:05:40;190.22;;;77.90;;
37355;SDS011;48747;50.250;18.848;2022-11-20T00:07:43;205.35;;;83.50;;
37355;SDS011;48747;50.250;18.848;2022-11-20T00:09:46;189.70;;;79.60;;
37355;SDS011;48747;50.250;18.848;2022-11-20T00:11:49;179.85;;;74.45;;
37355;SDS011;48747;50.250;18.848;2022-11-20T00:13:53;144.17;;;61.53;;
37355;SDS011;48747;50.250;18.848;2022-11-20T00:16:01;142.00;;;59.38;;
37355;SDS011;48747;50.250;18.848;2022-11-20T00:18:06;140.65;;;58.20;;
37355;SDS011;48747;50.250;18.848;2022-11-20T00:20:13;140.15;;;60.48;;
37355;SDS011;48747;50.250;18.848;2022-11-20T00:22:13;140.47;;;59.13;;
37355;SDS011;48747;50.250;18.848;2022-11-20T00:24:16;138.85;;;58.83;;
37355;SDS011;48747;50.250;18.848;2022-11-20T00:26:20;131.25;;;59.05;;
37355;SDS011;48747;50.250;18.848;2022-11-20T00:28:24;136.37;;;60.28;;
37355;SDS011;48747;50.250;18.848;2022-11-20T00:30:27;145.20;;;59.05;;
37355;SDS011;48747;50.250;18.848;2022-11-20T00:32:30;133.22;;;59.08;;
37355;SDS011;48747;50.250;18.848;2022-11-20T00:34:33;135.52;;;58.83;;
37355;SDS011;48747;50.250;18.848;2022-11-20T00:36:36;143.30;;;58.40;;
37355;SDS011;48747;50.250;18.848;2022-11-20T00:38:39;143.00;;;60.78;;
37355;SDS011;48747;50.250;18.848;2022-11-20T00:40:43;133.75;;;59.20;;
37355;SDS011;48747;50.250;18.848;2022-11-20T00:42:46;126.95;;;54.35;;
37355;SDS011;48747;50.250;18.848;2022-11-20T00:44:49;139.60;;;59.77;;
37355;SDS011;48747;50.250;18.848;2022-11-20T00:46:52;137.62;;;60.73;;
37355;SDS011;48747;50.250;18.848;2022-11-20T00:48:55;135.65;;;58.68;;
37355;SDS011;48747;50.250;18.848;2022-11-20T00:50:58;133.72;;;58.40;;
37355;SDS011;48747;50.250;18.848;2022-11-20T00:53:01;127.70;;;58.95;;
37355;SDS011;48747;50.250;18.848;2022-11-20T00:55:05;138.10;;;60.55;;
37355;SDS011;48747;50.250;18.848;2022-11-20T00:57:08;138.92;;;61.40;;
37355;SDS011;48747;50.250;18.848;2022-11-20T00:59:11;126.60;;;56.25;;
37355;SDS011;48747;50.250;18.848;2022-11-20T01:01:15;130.25;;;57.48;;
37355;SDS011;48747;50.250;18.848;2022-11-20T01:03:20;126.02;;;57.65;;
37355;SDS011;48747;50.250;18.848;2022-11-20T01:05:23;139.05;;;62.43;;
37355;SDS011;48747;50.250;18.848;2022-11-20T01:07:26;129.82;;;56.90;;
37355;SDS011;48747;50.250;18.848;2022-11-20T01:09:29;138.50;;;59.20;;
37355;SDS011;48747;50.250;18.848;2022-11-20T01:11:33;141.28;;;62.27;;
37355;SDS011;48747;50.250;18.848;2022-11-20T01:13:38;141.18;;;60.80;;
37355;SDS011;48747;50.250;18.848;2022-11-20T01:15:42;143.13;;;60.30;;
37355;SDS011;48747;50.250;18.848;2022-11-20T01:17:45;147.07;;;62.90;;
37355;SDS011;48747;50.250;18.848;2022-11-20T01:19:51;138.03;;;62.05;;
37355;SDS011;48747;50.250;18.848;2022-11-20T01:21:54;139.90;;;60.08;;
37355;SDS011;48747;50.250;18.848;2022-11-20T01:23:59;141.73;;;59.88;;
37355;SDS011;48747;50.250;18.848;2022-11-20T01:26:02;140.92;;;63.45;;
37355;SDS011;48747;50.250;18.848;2022-11-20T01:28:07;132.15;;;59.63;;
37355;SDS011;48747;50.250;18.848;2022-11-20T01:30:10;133.87;;;60.28;;
37355;SDS011;48747;50.250;18.848;2022-11-20T01:32:14;146.95;;;64.40;;
37355;SDS011;48747;50.250;18.848;2022-11-20T01:34:17;145.40;;;63.87;;
37355;SDS011;48747;50.250;18.848;2022-11-20T01:36:24;140.62;;;63.30;;
37355;SDS011;48747;50.250;18.848;2022-11-20T01:38:28;134.32;;;60.98;;
37355;SDS011;48747;50.250;18.848;2022-11-20T01:40:31;149.87;;;65.67;;
37355;SDS011;48747;50.250;18.848;2022-11-20T01:42:34;140.15;;;62.67;;
37355;SDS011;48747;50.250;18.848;2022-11-20T01:44:56;146.68;;;62.88;;
37355;SDS011;48747;50.250;18.848;2022-11-20T01:47:02;141.35;;;63.00;;
37355;SDS011;48747;50.250;18.848;2022-11-20T01:49:24;140.92;;;62.40;;
37355;SDS011;48747;50.250;18.848;2022-11-20T01:51:50;145.33;;;63.03;;
37355;SDS011;48747;50.250;18.848;2022-11-20T01:53:42;149.23;;;67.15;;
37355;SDS011;48747;50.250;18.848;2022-11-20T01:55:47;140.70;;;65.60;;
37355;SDS011;48747;50.250;18.848;2022-11-20T01:57:52;148.02;;;64.55;;
37355;SDS011;48747;50.250;18.848;2022-11-20T02:00:03;156.60;;;66.95;;
37355;SDS011;48747;50.250;18.848;2022-11-20T02:02:01;149.35;;;67.03;;
37355;SDS011;48747;50.250;18.848;2022-11-20T02:04:04;144.07;;;65.42;;
37355;SDS011;48747;50.250;18.848;2022-11-20T02:06:23;141.82;;;65.25;;
37355;SDS011;48747;50.250;18.848;2022-11-20T02:08:27;150.22;;;67.92;;
37355;SDS011;48747;50.250;18.848;2022-11-20T02:10:31;150.80;;;69.07;;
37355;SDS011;48747;50.250;18.848;2022-11-20T02:12:35;155.00;;;67.58;;
37355;SDS011;48747;50.250;18.848;2022-11-20T02:14:56;141.82;;;63.63;;
37355;SDS011;48747;50.250;18.848;2022-11-20T02:16:59;151.82;;;66.62;;
37355;SDS011;48747;50.250;18.848;2022-11-20T02:19:06;150.90;;;67.30;;
37355;SDS011;48747;50.250;18.848;2022-11-20T02:21:17;158.93;;;69.45;;
37355;SDS011;48747;50.250;18.848;2022-11-20T02:25:42;154.47;;;68.10;;
37355;SDS011;48747;50.250;18.848;2022-11-20T02:27:53;158.47;;;67.60;;
37355;SDS011;48747;50.250;18.848;2022-11-20T02:29:53;154.90;;;66.85;;
37355;SDS011;48747;50.250;18.848;2022-11-20T02:32:01;154.30;;;67.10;;
37355;SDS011;48747;50.250;18.848;2022-11-20T02:34:05;152.17;;;65.25;;
37355;SDS011;48747;50.250;18.848;2022-11-20T02:36:09;157.30;;;70.67;;
37355;SDS011;48747;50.250;18.848;2022-11-20T02:38:14;156.72;;;68.28;;
37355;SDS011;48747;50.250;18.848;2022-11-20T02:40:18;150.62;;;68.42;;
37355;SDS011;48747;50.250;18.848;2022-11-20T02:42:23;154.47;;;67.90;;
37355;SDS011;48747;50.250;18.848;2022-11-20T02:44:26;158.90;;;67.00;;
37355;SDS011;48747;50.250;18.848;2022-11-20T02:46:29;153.62;;;67.65;;
37355;SDS011;48747;50.250;18.848;2022-11-20T02:48:33;158.55;;;67.58;;
37355;SDS011;48747;50.250;18.848;2022-11-20T02:50:37;152.00;;;68.45;;
37355;SDS011;48747;50.250;18.848;2022-11-20T02:52:41;156.95;;;67.95;;
37355;SDS011;48747;50.250;18.848;2022-11-20T02:54:45;152.12;;;67.87;;
37355;SDS011;48747;50.250;18.848;2022-11-20T02:56:48;153.30;;;68.07;;
37355;SDS011;48747;50.250;18.848;2022-11-20T02:58:52;150.22;;;64.75;;
37355;SDS011;48747;50.250;18.848;2022-11-20T03:00:55;159.97;;;68.47;;
37355;SDS011;48747;50.250;18.848;2022-11-20T03:02:58;153.95;;;66.55;;
37355;SDS011;48747;50.250;18.848;2022-11-20T03:05:01;157.03;;;71.90;;
37355;SDS011;48747;50.250;18.848;2022-11-20T03:07:04;154.20;;;67.42;;
37355;SDS011;48747;50.250;18.848;2022-11-20T03:09:10;155.37;;;68.78;;
37355;SDS011;48747;50.250;18.848;2022-11-20T03:11:14;141.77;;;62.55;;
37355;SDS011;48747;50.250;18.848;2022-11-20T03:13:17;142.45;;;64.62;;
37355;SDS011;48747;50.250;18.848;2022-11-20T03:15:20;152.53;;;66.05;;
37355;SDS011;48747;50.250;18.848;2022-11-20T03:17:24;147.93;;;65.90;;
37355;SDS011;48747;50.250;18.848;2022-11-20T03:19:27;150.72;;;65.57;;
37355;SDS011;48747;50.250;18.848;2022-11-20T03:21:35;153.12;;;65.28;;
37355;SDS011;48747;50.250;18.848;2022-11-20T03:23:38;157.22;;;65.78;;
37355;SDS011;48747;50.250;18.848;2022-11-20T03:25:42;150.47;;;62.75;;
37355;SDS011;48747;50.250;18.848;2022-11-20T03:27:45;154.42;;;65.52;;
37355;SDS011;48747;50.250;18.848;2022-11-20T03:29:48;152.90;;;64.10;;
37355;SDS011;48747;50.250;18.848;2022-11-20T03:31:51;144.22;;;62.85;;
37355;SDS011;48747;50.250;18.848;2022-11-20T03:33:56;146.53;;;64.40;;
37355;SDS011;48747;50.250;18.848;2022-11-20T03:36:01;160.63;;;68.05;;
37355;SDS011;48747;50.250;18.848;2022-11-20T03:38:06;141.50;;;63.80;;
37355;SDS011;48747;50.250;18.848;2022-11-20T03:40:09;142.98;;;62.23;;
37355;SDS011;48747;50.250;18.848;2022-11-20T03:42:12;136.85;;;61.92;;
37355;SDS011;48747;50.250;18.848;2022-11-20T03:44:33;135.78;;;60.08;;
37355;SDS011;48747;50.250;18.848;2022-11-20T03:46:36;139.57;;;60.03;;
37355;SDS011;48747;50.250;18.848;2022-11-20T03:48:45;142.68;;;59.80;;
37355;SDS011;48747;50.250;18.848;2022-11-20T03:50:47;133.40;;;61.00;;
37355;SDS011;48747;50.250;18.848;2022-11-20T03:52:50;127.45;;;56.15;;
37355;SDS011;48747;50.250;18.848;2022-11-20T03:54:53;139.10;;;60.67;;
37355;SDS011;48747;50.250;18.848;2022-11-20T03:56:56;137.43;;;61.13;;
37355;SDS011;48747;50.250;18.848;2022-11-20T03:58:59;136.72;;;61.08;;
37355;SDS011;48747;50.250;18.848;2022-11-20T04:01:06;130.27;;;58.13;;
37355;SDS011;48747;50.250;18.848;2022-11-20T04:03:19;139.97;;;60.80;;
37355;SDS011;48747;50.250;18.848;2022-11-20T04:05:18;131.18;;;57.45;;
37355;SDS011;48747;50.250;18.848;2022-11-20T04:07:21;139.57;;;61.05;;
37355;SDS011;48747;50.250;18.848;2022-11-20T04:09:24;137.35;;;61.40;;
37355;SDS011;48747;50.250;18.848;2022-11-20T04:11:28;142.43;;;62.15;;
37355;SDS011;48747;50.250;18.848;2022-11-20T04:13:32;138.35;;;59.05;;
37355;SDS011;48747;50.250;18.848;2022-11-20T04:15:35;128.70;;;56.58;;
37355;SDS011;48747;50.250;18.848;2022-11-20T04:17:38;131.87;;;56.98;;
37355;SDS011;48747;50.250;18.848;2022-11-20T04:19:43;134.03;;;59.42;;
37355;SDS011;48747;50.250;18.848;2022-11-20T04:21:46;135.25;;;58.98;;
37355;SDS011;48747;50.250;18.848;2022-11-20T04:23:49;135.03;;;58.68;;
37355;SDS011;48747;50.250;18.848;2022-11-20T04:25:54;136.18;;;59.13;;
37355;SDS011;48747;50.250;18.848;2022-11-20T04:27:57;134.93;;;58.85;;
37355;SDS011;48747;50.250;18.848;2022-11-20T04:30:01;131.87;;;60.52;;
37355;SDS011;48747;50.250;18.848;2022-11-20T04:32:04;133.07;;;60.00;;
37355;SDS011;48747;50.250;18.848;2022-11-20T04:34:07;128.25;;;58.17;;
37355;SDS011;48747;50.250;18.848;2022-11-20T04:36:13;133.50;;;59.08;;
37355;SDS011;48747;50.250;18.848;2022-11-20T04:38:18;147.02;;;66.55;;
37355;SDS011;48747;50.250;18.848;2022-11-20T04:40:26;149.30;;;66.12;;
37355;SDS011;48747;50.250;18.848;2022-11-20T04:42:25;136.68;;;62.85;;
37355;SDS011;48747;50.250;18.848;2022-11-20T04:44:31;143.75;;;63.78;;
37355;SDS011;48747;50.250;18.848;2022-11-20T04:46:35;134.57;;;59.18;;
37355;SDS011;48747;50.250;18.848;2022-11-20T04:48:40;130.25;;;57.85;;
37355;SDS011;48747;50.250;18.848;2022-11-20T04:50:43;131.12;;;58.35;;
37355;SDS011;48747;50.250;18.848;2022-11-20T04:52:46;127.22;;;55.38;;
37355;SDS011;48747;50.250;18.848;2022-11-20T04:54:51;130.52;;;59.15;;
37355;SDS011;48747;50.250;18.848;2022-11-20T04:56:54;133.95;;;57.33;;
37355;SDS011;48747;50.250;18.848;2022-11-20T04:59:02;125.97;;;56.88;;
37355;SDS011;48747;50.250;18.848;2022-11-20T05:01:05;125.07;;;56.28;;
37355;SDS011;48747;50.250;18.848;2022-11-20T05:03:10;132.40;;;58.68;;
37355;SDS011;48747;50.250;18.848;2022-11-20T05:05:13;130.82;;;54.95;;
37355;SDS011;48747;50.250;18.848;2022-11-20T05:07:16;130.03;;;54.67;;
37355;SDS011;48747;50.250;18.848;2022-11-20T05:09:21;124.72;;;56.00;;
37355;SDS011;48747;50.250;18.848;2022-11-20T05:11:24;135.78;;;56.45;;
37355;SDS011;48747;50.250;18.848;2022-11-20T05:13:29;135.75;;;58.05;;
37355;SDS011;48747;50.250;18.848;2022-11-20T05:15:32;129.23;;;58.35;;
37355;SDS011;48747;50.250;18.848;2022-11-20T05:17:38;127.42;;;56.35;;
37355;SDS011;48747;50.250;18.848;2022-11-20T05:19:41;124.75;;;56.35;;
37355;SDS011;48747;50.250;18.848;2022-11-20T05:21:44;124.75;;;55.75;;
37355;SDS011;48747;50.250;18.848;2022-11-20T05:23:47;130.97;;;54.88;;
37355;SDS011;48747;50.250;18.848;2022-11-20T05:25:54;125.72;;;57.33;;
37355;SDS011;48747;50.250;18.848;2022-11-20T05:27:58;128.38;;;57.03;;
37355;SDS011;48747;50.250;18.848;2022-11-20T05:30:01;118.22;;;56.42;;
37355;SDS011;48747;50.250;18.848;2022-11-20T05:32:05;129.38;;;56.28;;
37355;SDS011;48747;50.250;18.848;2022-11-20T05:34:10;135.25;;;57.88;;
37355;SDS011;48747;50.250;18.848;2022-11-20T05:36:15;126.15;;;55.45;;
37355;SDS011;48747;50.250;18.848;2022-11-20T05:38:20;120.17;;;53.95;;
37355;SDS011;48747;50.250;18.848;2022-11-20T05:40:23;127.53;;;56.23;;
37355;SDS011;48747;50.250;18.848;2022-11-20T05:42:26;128.35;;;57.48;;
37355;SDS011;48747;50.250;18.848;2022-11-20T05:44:33;126.35;;;56.50;;
37355;SDS011;48747;50.250;18.848;2022-11-20T05:46:36;131.12;;;55.88;;
37355;SDS011;48747;50.250;18.848;2022-11-20T05:48:40;124.80;;;56.00;;
37355;SDS011;48747;50.250;18.848;2022-11-20T05:50:45;128.80;;;54.88;;
37355;SDS011;48747;50.250;18.848;2022-11-20T05:52:52;130.95;;;59.33;;
37355;SDS011;48747;50.250;18.848;2022-11-20T05:54:56;135.15;;;60.03;;
37355;SDS011;48747;50.250;18.848;2022-11-20T05:56:59;135.75;;;59.88;;
37355;SDS011;48747;50.250;18.848;2022-11-20T05:59:02;126.87;;;56.18;;
37355;SDS011;48747;50.250;18.848;2022-11-20T06:01:06;119.77;;;56.75;;
37355;SDS011;48747;50.250;18.848;2022-11-20T06:03:14;120.35;;;53.87;;
37355;SDS011;48747;50.250;18.848;2022-11-20T06:05:17;126.70;;;55.05;;
37355;SDS011;48747;50.250;18.848;2022-11-20T06:07:20;118.47;;;56.15;;
37355;SDS011;48747;50.250;18.848;2022-11-20T06:09:23;121.00;;;56.00;;
37355;SDS011;48747;50.250;18.848;2022-11-20T06:11:26;118.05;;;53.63;;
37355;SDS011;48747;50.250;18.848;2022-11-20T06:13:29;124.85;;;55.88;;
37355;SDS011;48747;50.250;18.848;2022-11-20T06:15:35;128.78;;;56.98;;
37355;SDS011;48747;50.250;18.848;2022-11-20T06:17:37;119.50;;;56.15;;
37355;SDS011;48747;50.250;18.848;2022-11-20T06:19:40;132.32;;;55.85;;
37355;SDS011;48747;50.250;18.848;2022-11-20T06:21:43;131.05;;;57.35;;
37355;SDS011;48747;50.250;18.848;2022-11-20T06:23:46;128.25;;;55.63;;
37355;SDS011;48747;50.250;18.848;2022-11-20T06:25:49;125.55;;;55.55;;
37355;SDS011;48747;50.250;18.848;2022-11-20T06:27:52;123.72;;;55.80;;
37355;SDS011;48747;50.250;18.848;2022-11-20T06:29:55;120.77;;;56.30;;
37355;SDS011;48747;50.250;18.848;2022-11-20T06:31:58;134.82;;;56.75;;
37355;SDS011;48747;50.250;18.848;2022-11-20T06:34:02;129.15;;;55.67;;
37355;SDS011;48747;50.250;18.848;2022-11-20T06:36:07;127.53;;;55.58;;
37355;SDS011;48747;50.250;18.848;2022-11-20T06:38:13;128.30;;;56.73;;
37355;SDS011;48747;50.250;18.848;2022-11-20T06:40:16;130.18;;;56.00;;
37355;SDS011;48747;50.250;18.848;2022-11-20T06:42:19;117.67;;;52.55;;
37355;SDS011;48747;50.250;18.848;2022-11-20T06:44:22;123.90;;;54.08;;
37355;SDS011;48747;50.250;18.848;2022-11-20T06:46:27;129.35;;;54.45;;
37355;SDS011;48747;50.250;18.848;2022-11-20T06:48:29;131.03;;;56.80;;
37355;SDS011;48747;50.250;18.848;2022-11-20T06:50:33;125.30;;;54.35;;
37355;SDS011;48747;50.250;18.848;2022-11-20T06:52:37;129.10;;;56.77;;
37355;SDS011;48747;50.250;18.848;2022-11-20T06:54:40;126.45;;;56.23;;
37355;SDS011;48747;50.250;18.848;2022-11-20T06:56:46;126.78;;;56.55;;
37355;SDS011;48747;50.250;18.848;2022-11-20T06:58:51;126.67;;;57.00;;
37355;SDS011;48747;50.250;18.848;2022-11-20T07:00:57;123.53;;;56.55;;
37355;SDS011;48747;50.250;18.848;2022-11-20T07:03:09;121.90;;;56.10;;
37355;SDS011;48747;50.250;18.848;2022-11-20T07:05:13;130.87;;;56.45;;
37355;SDS011;48747;50.250;18.848;2022-11-20T07:07:16;121.62;;;55.50;;
37355;SDS011;48747;50.250;18.848;2022-11-20T07:09:19;132.47;;;59.38;;
37355;SDS011;48747;50.250;18.848;2022-11-20T07:11:23;133.18;;;59.35;;
37355;SDS011;48747;50.250;18.848;2022-11-20T07:13:26;132.70;;;60.03;;
37355;SDS011;48747;50.250;18.848;2022-11-20T07:15:30;137.43;;;60.58;;
37355;SDS011;48747;50.250;18.848;2022-11-20T07:17:33;133.52;;;60.65;;
37355;SDS011;48747;50.250;18.848;2022-11-20T07:19:37;132.35;;;60.20;;
37355;SDS011;48747;50.250;18.848;2022-11-20T07:21:40;131.00;;;60.80;;
37355;SDS011;48747;50.250;18.848;2022-11-20T07:23:43;136.32;;;61.88;;
37355;SDS011;48747;50.250;18.848;2022-11-20T07:25:46;130.70;;;61.13;;
37355;SDS011;48747;50.250;18.848;2022-11-20T07:27:52;134.47;;;63.10;;
37355;SDS011;48747;50.250;18.848;2022-11-20T07:30:01;134.63;;;63.78;;
37355;SDS011;48747;50.250;18.848;2022-11-20T07:32:01;137.47;;;63.17;;
37355;SDS011;48747;50.250;18.848;2022-11-20T07:34:06;140.07;;;64.40;;
37355;SDS011;48747;50.250;18.848;2022-11-20T07:36:10;126.82;;;60.20;;
37355;SDS011;48747;50.250;18.848;2022-11-20T07:38:13;131.90;;;59.95;;
37355;SDS011;48747;50.250;18.848;2022-11-20T07:40:17;126.18;;;56.80;;
37355;SDS011;48747;50.250;18.848;2022-11-20T07:42:20;122.02;;;58.45;;
37355;SDS011;48747;50.250;18.848;2022-11-20T07:44:23;126.22;;;59.83;;
37355;SDS011;48747;50.250;18.848;2022-11-20T07:46:26;129.55;;;60.73;;
37355;SDS011;48747;50.250;18.848;2022-11-20T07:48:29;134.95;;;59.58;;
37355;SDS011;48747;50.250;18.848;2022-11-20T07:50:32;147.35;;;63.55;;
37355;SDS011;48747;50.250;18.848;2022-11-20T07:52:36;139.47;;;63.02;;
37355;SDS011;48747;50.250;18.848;2022-11-20T07:54:40;141.03;;;62.33;;
37355;SDS011;48747;50.250;18.848;2022-11-20T07:56:43;137.43;;;62.78;;
37355;SDS011;48747;50.250;18.848;2022-11-20T07:58:46;145.70;;;63.45;;
37355;SDS011;48747;50.250;18.848;2022-11-20T08:00:49;139.07;;;64.65;;
37355;SDS011;48747;50.250;18.848;2022-11-20T08:02:52;140.15;;;65.47;;
37355;SDS011;48747;50.250;18.848;2022-11-20T08:04:55;162.00;;;74.85;;
37355;SDS011;48747;50.250;18.848;2022-11-20T08:06:58;162.77;;;74.77;;
37355;SDS011;48747;50.250;18.848;2022-11-20T08:09:02;156.70;;;72.85;;
37355;SDS011;48747;50.250;18.848;2022-11-20T08:11:05;150.53;;;70.85;;
37355;SDS011;48747;50.250;18.848;2022-11-20T08:13:26;166.82;;;74.90;;
37355;SDS011;48747;50.250;18.848;2022-11-20T08:15:48;164.45;;;74.42;;
37355;SDS011;48747;50.250;18.848;2022-11-20T08:17:58;163.68;;;76.60;;
37355;SDS011;48747;50.250;18.848;2022-11-20T08:20:04;170.87;;;78.80;;
37355;SDS011;48747;50.250;18.848;2022-11-20T08:22:13;165.43;;;80.40;;
37355;SDS011;48747;50.250;18.848;2022-11-20T08:24:12;177.27;;;80.83;;
37355;SDS011;48747;50.250;18.848;2022-11-20T08:26:18;178.68;;;84.45;;
37355;SDS011;48747;50.250;18.848;2022-11-20T08:28:23;179.47;;;84.92;;
37355;SDS011;48747;50.250;18.848;2022-11-20T08:30:25;176.18;;;81.87;;
37355;SDS011;48747;50.250;18.848;2022-11-20T08:32:29;173.25;;;81.08;;
37355;SDS011;48747;50.250;18.848;2022-11-20T08:34:32;180.30;;;85.67;;
37355;SDS011;48747;50.250;18.848;2022-11-20T08:36:35;176.78;;;84.90;;
37355;SDS011;48747;50.250;18.848;2022-11-20T08:38:38;174.97;;;83.07;;
37355;SDS011;48747;50.250;18.848;2022-11-20T08:40:41;186.20;;;85.28;;
37355;SDS011;48747;50.250;18.848;2022-11-20T08:42:49;174.80;;;81.32;;
37355;SDS011;48747;50.250;18.848;2022-11-20T08:44:53;175.72;;;82.42;;
37355;SDS011;48747;50.250;18.848;2022-11-20T08:46:56;169.22;;;80.95;;
37355;SDS011;48747;50.250;18.848;2022-11-20T08:51:23;168.43;;;75.97;;
37355;SDS011;48747;50.250;18.848;2022-11-20T08:53:27;163.90;;;72.55;;
37355;SDS011;48747;50.250;18.848;2022-11-20T08:55:32;162.40;;;73.55;;
37355;SDS011;48747;50.250;18.848;2022-11-20T08:57:37;150.45;;;68.28;;
37355;SDS011;48747;50.250;18.848;2022-11-20T08:59:42;138.03;;;68.20;;
37355;SDS011;48747;50.250;18.848;2022-11-20T09:01:50;147.90;;;66.50;;
37355;SDS011;48747;50.250;18.848;2022-11-20T09:03:51;148.00;;;67.80;;
37355;SDS011;48747;50.250;18.848;2022-11-20T09:06:04;153.27;;;71.47;;
37355;SDS011;48747;50.250;18.848;2022-11-20T09:08:06;150.03;;;71.20;;
37355;SDS011;48747;50.250;18.848;2022-11-20T09:10:14;153.38;;;68.87;;
37355;SDS011;48747;50.250;18.848;2022-11-20T09:12:19;149.82;;;71.85;;
37355;SDS011;48747;50.250;18.848;2022-11-20T09:14:27;151.60;;;70.85;;
37355;SDS011;48747;50.250;18.848;2022-11-20T09:16:35;148.85;;;68.70;;
37355;SDS011;48747;50.250;18.848;2022-11-20T09:18:35;154.50;;;70.87;;
37355;SDS011;48747;50.250;18.848;2022-11-20T09:20:55;148.28;;;66.00;;
37355;SDS011;48747;50.250;18.848;2022-11-20T09:22:43;146.75;;;67.20;;
37355;SDS011;48747;50.250;18.848;2022-11-20T09:24:46;154.90;;;67.75;;
37355;SDS011;48747;50.250;18.848;2022-11-20T09:26:50;146.57;;;67.70;;
37355;SDS011;48747;50.250;18.848;2022-11-20T09:28:54;151.80;;;69.25;;
37355;SDS011;48747;50.250;18.848;2022-11-20T09:30:57;156.32;;;71.53;;
37355;SDS011;48747;50.250;18.848;2022-11-20T09:33:01;142.62;;;68.72;;
37355;SDS011;48747;50.250;18.848;2022-11-20T09:35:06;142.00;;;66.45;;
37355;SDS011;48747;50.250;18.848;2022-11-20T09:37:09;138.85;;;65.00;;
37355;SDS011;48747;50.250;18.848;2022-11-20T09:39:17;128.80;;;62.83;;
37355;SDS011;48747;50.250;18.848;2022-11-20T09:41:32;139.62;;;64.25;;
37355;SDS011;48747;50.250;18.848;2022-11-20T09:45:56;127.60;;;58.48;;
37355;SDS011;48747;50.250;18.848;2022-11-20T09:52:52;126.38;;;57.35;;
37355;SDS011;48747;50.250;18.848;2022-11-20T09:54:58;117.10;;;55.50;;
37355;SDS011;48747;50.250;18.848;2022-11-20T09:57:11;111.70;;;50.17;;
37355;SDS011;48747;50.250;18.848;2022-11-20T09:59:25;108.30;;;51.18;;
37355;SDS011;48747;50.250;18.848;2022-11-20T10:01:38;109.25;;;51.40;;
37355;SDS011;48747;50.250;18.848;2022-11-20T10:03:48;109.55;;;51.70;;
37355;SDS011;48747;50.250;18.848;2022-11-20T10:05:57;115.15;;;52.93;;
37355;SDS011;48747;50.250;18.848;2022-11-20T10:10:34;112.05;;;52.25;;
37355;SDS011;48747;50.250;18.848;2022-11-20T10:24:36;100.25;;;48.02;;
37355;SDS011;48747;50.250;18.848;2022-11-20T10:26:48;97.15;;;45.90;;
37355;SDS011;48747;50.250;18.848;2022-11-20T10:31:57;84.83;;;41.30;;
37355;SDS011;48747;50.250;18.848;2022-11-20T10:34:16;93.20;;;44.23;;
37355;SDS011;48747;50.250;18.848;2022-11-20T10:36:20;98.03;;;46.58;;
37355;SDS011;48747;50.250;18.848;2022-11-20T10:38:38;91.25;;;44.45;;
37355;SDS011;48747;50.250;18.848;2022-11-20T10:40:59;91.25;;;44.15;;
37355;SDS011;48747;50.250;18.848;2022-11-20T10:43:03;90.75;;;44.23;;
37355;SDS011;48747;50.250;18.848;2022-11-20T10:47:37;85.53;;;41.53;;
37355;SDS011;48747;50.250;18.848;2022-11-20T11:00:47;92.65;;;42.65;;
37355;SDS011;48747;50.250;18.848;2022-11-20T11:02:51;82.17;;;40.28;;
37355;SDS011;48747;50.250;18.848;2022-11-20T11:04:56;95.00;;;43.98;;
37355;SDS011;48747;50.250;18.848;2022-11-20T11:07:10;88.22;;;43.35;;
37355;SDS011;48747;50.250;18.848;2022-11-20T11:09:11;85.42;;;42.27;;
37355;SDS011;48747;50.250;18.848;2022-11-20T11:11:22;97.70;;;45.83;;
37355;SDS011;48747;50.250;18.848;2022-11-20T11:13:29;105.70;;;52.45;;
37355;SDS011;48747;50.250;18.848;2022-11-20T11:15:39;109.00;;;47.55;;
37355;SDS011;48747;50.250;18.848;2022-11-20T11:17:47;97.72;;;42.88;;
37355;SDS011;48747;50.250;18.848;2022-11-20T11:19:57;111.65;;;45.50;;
37355;SDS011;48747;50.250;18.848;2022-11-20T11:22:09;104.10;;;44.35;;
37355;SDS011;48747;50.250;18.848;2022-11-20T11:24:20;93.55;;;42.10;;
37355;SDS011;48747;50.250;18.848;2022-11-20T11:26:32;89.28;;;41.25;;
37355;SDS011;48747;50.250;18.848;2022-11-20T11:28:59;100.27;;;44.23;;
37355;SDS011;48747;50.250;18.848;2022-11-20T11:30:43;99.72;;;42.43;;
37355;SDS011;48747;50.250;18.848;2022-11-20T11:32:49;104.70;;;46.90;;
37355;SDS011;48747;50.250;18.848;2022-11-20T11:35:05;99.85;;;45.15;;
37355;SDS011;48747;50.250;18.848;2022-11-20T11:37:10;90.80;;;41.90;;
37355;SDS011;48747;50.250;18.848;2022-11-20T11:39:22;86.42;;;41.10;;
37355;SDS011;48747;50.250;18.848;2022-11-20T11:41:30;92.82;;;41.15;;
37355;SDS011;48747;50.250;18.848;2022-11-20T11:43:36;89.77;;;42.60;;
37355;SDS011;48747;50.250;18.848;2022-11-20T11:48:17;95.72;;;41.00;;
37355;SDS011;48747;50.250;18.848;2022-11-20T11:52:20;88.40;;;42.27;;
37355;SDS011;48747;50.250;18.848;2022-11-20T11:54:28;82.20;;;39.25;;
37355;SDS011;48747;50.250;18.848;2022-11-20T11:56:37;89.40;;;42.20;;
37355;SDS011;48747;50.250;18.848;2022-11-20T11:58:41;85.28;;;41.58;;
37355;SDS011;48747;50.250;18.848;2022-11-20T12:00:51;82.60;;;39.67;;
37355;SDS011;48747;50.250;18.848;2022-11-20T12:03:08;89.37;;;42.75;;
37355;SDS011;48747;50.250;18.848;2022-11-20T12:09:52;84.32;;;41.73;;
37355;SDS011;48747;50.250;18.848;2022-11-20T12:12:04;94.72;;;45.67;;
37355;SDS011;48747;50.250;18.848;2022-11-20T12:14:49;91.17;;;43.58;;
37355;SDS011;48747;50.250;18.848;2022-11-20T12:16:16;102.07;;;48.55;;
37355;SDS011;48747;50.250;18.848;2022-11-20T12:18:21;97.92;;;47.30;;
37355;SDS011;48747;50.250;18.848;2022-11-20T12:20:32;100.67;;;47.15;;
37355;SDS011;48747;50.250;18.848;2022-11-20T12:22:45;94.92;;;46.15;;
37355;SDS011;48747;50.250;18.848;2022-11-20T12:24:55;99.35;;;47.03;;
37355;SDS011;48747;50.250;18.848;2022-11-20T12:27:09;99.32;;;46.35;;
37355;SDS011;48747;50.250;18.848;2022-11-20T12:34:23;101.10;;;46.77;;
37355;SDS011;48747;50.250;18.848;2022-11-20T12:38:52;91.87;;;45.08;;
37355;SDS011;48747;50.250;18.848;2022-11-20T12:46:23;100.53;;;47.03;;
37355;SDS011;48747;50.250;18.848;2022-11-20T12:57:25;105.75;;;51.37;;
37355;SDS011;48747;50.250;18.848;2022-11-20T12:59:52;104.38;;;51.80;;
37355;SDS011;48747;50.250;18.848;2022-11-20T13:04:55;108.37;;;51.40;;
37355;SDS011;48747;50.250;18.848;2022-11-20T13:06:59;122.85;;;55.63;;
37355;SDS011;48747;50.250;18.848;2022-11-20T13:09:11;127.00;;;62.03;;
37355;SDS011;48747;50.250;18.848;2022-11-20T13:18:18;107.03;;;49.95;;